createdAt,value
2022-09-10T00:00:11.069Z,2.92
2022-09-10T00:03:04.650Z,2.50
2022-09-10T00:05:43.340Z,2.90
2022-09-10T00:08:19.180Z,2.60
2022-09-10T00:10:52.917Z,2.60
2022-09-10T00:13:25.877Z,2.95
2022-09-10T00:15:59.047Z,2.60
2022-09-10T00:18:31.173Z,2.78
2022-09-10T00:21:03.618Z,2.70
2022-09-10T00:23:38.617Z,2.92
2022-09-10T00:26:19.358Z,2.50
2022-09-10T00:29:02.418Z,2.67
2022-09-10T00:31:35.965Z,2.80
2022-09-10T00:34:09.349Z,2.92
2022-09-10T00:36:44.377Z,2.83
2022-09-10T00:39:21.636Z,2.75
2022-09-10T00:41:53.357Z,3.10
2022-09-10T00:44:55.181Z,2.72
2022-09-10T00:47:32.317Z,3.00
2022-09-10T00:50:09.845Z,3.03
2022-09-10T00:52:43.256Z,2.70
2022-09-10T00:55:19.777Z,2.60
2022-09-10T00:57:55.998Z,2.85
2022-09-10T01:00:28.197Z,3.05
2022-09-10T06:21:09.850Z,3.72
2022-09-10T06:23:42.330Z,3.30
2022-09-10T06:26:15.587Z,2.80
2022-09-10T06:28:50.659Z,3.00
2022-09-10T06:31:23.711Z,3.05
2022-09-10T06:33:55.870Z,2.90
2022-09-10T06:36:30.830Z,2.88
2022-09-10T06:39:03.770Z,2.88
2022-09-10T06:41:35.490Z,3.03
2022-09-10T06:44:07.769Z,3.17
2022-09-10T06:49:32.297Z,2.80
2022-09-10T06:52:07.151Z,2.30
2022-09-10T06:54:39.879Z,2.00
2022-09-10T06:57:11.731Z,2.03
2022-09-10T06:59:59.159Z,1.90
2022-09-10T07:02:43.929Z,1.75
2022-09-10T07:05:19.198Z,1.77
2022-09-10T07:07:55.371Z,1.90
2022-09-10T07:10:27.908Z,1.77
2022-09-10T07:13:01.532Z,1.30
2022-09-10T07:15:34.219Z,2.00
2022-09-10T07:18:06.651Z,1.60
2022-09-10T07:20:39.130Z,1.80
2022-09-10T07:23:14.602Z,1.70
2022-09-10T07:25:47.742Z,1.80
2022-09-10T07:28:22.216Z,1.67
2022-09-10T07:30:55.816Z,2.10
2022-09-10T07:33:29.164Z,1.88
2022-09-10T07:36:03.914Z,1.98
2022-09-10T07:38:41.256Z,2.40
2022-09-10T07:41:16.576Z,2.20
2022-09-10T07:43:49.628Z,1.90
2022-09-10T07:46:25.914Z,1.80
2022-09-10T07:48:59.910Z,1.75
2022-09-10T07:51:33.957Z,1.70
2022-09-10T07:54:09.144Z,1.80
2022-09-10T07:56:42.390Z,1.60
2022-09-10T07:59:15.553Z,1.40
2022-09-10T08:01:49.115Z,1.85
2022-09-10T08:04:21.569Z,1.80
2022-09-10T08:07:05.190Z,1.95
2022-09-10T08:09:40.291Z,1.63
2022-09-10T08:12:22.525Z,1.70
2022-09-10T08:14:55.298Z,1.73
2022-09-10T08:17:28.041Z,1.42
2022-09-10T08:20:00.912Z,1.58
2022-09-10T08:22:34.800Z,1.33
2022-09-10T08:25:12.589Z,1.17
2022-09-10T08:27:45.375Z,1.27
2022-09-10T08:30:18.027Z,1.40
2022-09-10T08:32:50.710Z,1.20
2022-09-10T08:35:22.928Z,1.77
2022-09-10T08:37:55.506Z,1.40
2022-09-10T08:40:30.460Z,1.20
2022-09-10T08:43:04.307Z,1.05
2022-09-10T08:45:38.232Z,0.90
2022-09-10T08:48:18.867Z,1.00
2022-09-10T08:50:54.992Z,1.00
2022-09-10T08:53:35.403Z,1.10
2022-09-10T08:56:17.981Z,0.88
2022-09-10T08:58:58.081Z,1.95
2022-09-10T09:01:35.652Z,1.23
2022-09-10T09:04:13.333Z,1.00
2022-09-10T09:06:51.686Z,1.00
2022-09-10T09:09:25.149Z,1.38
2022-09-10T09:12:09.488Z,1.05
2022-09-10T09:14:58.771Z,0.90
2022-09-10T09:17:41.570Z,1.20
2022-09-10T09:20:19.288Z,1.30
2022-09-10T09:22:56.782Z,1.02
2022-09-10T09:25:35.190Z,0.88
2022-09-10T09:28:27.857Z,0.90
2022-09-10T09:31:07.495Z,1.00
2022-09-10T09:33:44.141Z,0.77
2022-09-10T09:36:21.807Z,0.73
2022-09-10T09:38:55.918Z,1.08
2022-09-10T09:41:34.163Z,0.82
2022-09-10T09:44:20.525Z,1.02
2022-09-10T09:46:52.955Z,0.90
2022-09-10T09:49:26.612Z,0.90
2022-09-10T09:51:59.377Z,0.98
2022-09-10T09:55:12.463Z,0.82
2022-09-10T09:57:28.052Z,1.02
2022-09-10T10:00:36.762Z,0.93
2022-09-10T10:03:19.638Z,1.10
2022-09-10T10:05:52.278Z,0.98
2022-09-10T10:08:34.350Z,1.02
2022-09-10T10:11:06.533Z,0.80
2022-09-10T10:13:43.210Z,1.10
2022-09-10T10:16:24.711Z,1.00
2022-09-10T10:18:56.512Z,0.90
2022-09-10T10:21:34.273Z,0.90
2022-09-10T10:24:06.720Z,1.33
2022-09-10T10:26:39.950Z,0.90
2022-09-10T10:29:22.831Z,0.90
2022-09-10T10:31:57.791Z,0.90
2022-09-10T10:34:53.172Z,1.00
2022-09-10T10:37:35.992Z,1.23
2022-09-10T10:40:30.577Z,1.10
2022-09-10T10:43:10.775Z,0.90
2022-09-10T10:45:51.786Z,1.00
2022-09-10T10:48:38.129Z,1.10
2022-09-10T10:51:18.892Z,1.20
2022-09-10T10:54:06.662Z,1.05
2022-09-10T10:56:43.750Z,1.17
2022-09-10T10:59:32.872Z,1.30
2022-09-10T11:02:16.062Z,1.10
2022-09-10T11:04:53.773Z,0.90
2022-09-10T11:07:33.092Z,1.00
2022-09-10T11:10:13.829Z,1.20
2022-09-10T11:12:51.829Z,0.90
2022-09-10T11:15:35.372Z,0.80
2022-09-10T11:18:16.750Z,1.10
2022-09-10T11:21:03.431Z,0.90
2022-09-10T11:23:42.570Z,1.20
2022-09-10T11:26:19.202Z,1.67
2022-09-10T11:29:00.130Z,1.50
2022-09-10T11:31:37.330Z,1.20
2022-09-10T11:34:18.410Z,1.00
2022-09-10T11:36:59.331Z,1.10
2022-09-10T11:39:37.084Z,1.20
2022-09-10T11:42:16.684Z,1.15
2022-09-10T11:44:59.921Z,1.10
2022-09-10T11:47:38.722Z,1.15
2022-09-10T11:50:34.552Z,1.30
2022-09-10T11:53:10.063Z,0.85
2022-09-10T11:56:09.962Z,0.80
2022-09-10T11:58:53.401Z,1.05
2022-09-10T12:01:44.347Z,1.00
2022-09-10T12:04:42.764Z,1.30
2022-09-10T12:07:28.889Z,1.10
2022-09-10T12:10:15.087Z,1.10
2022-09-10T12:12:50.128Z,1.52
2022-09-10T12:15:24.028Z,1.30
2022-09-10T12:18:02.131Z,1.17
2022-09-10T12:20:37.028Z,1.15
2022-09-10T12:23:10.076Z,1.15
2022-09-10T12:25:45.209Z,0.90
2022-09-10T12:28:46.907Z,1.08
2022-09-10T12:31:20.275Z,1.13
2022-09-10T12:34:17.692Z,1.17
2022-09-10T12:37:24.028Z,0.90
2022-09-10T12:40:25.848Z,0.98
2022-09-10T12:43:38.026Z,1.15
2022-09-10T12:46:23.043Z,1.30
2022-09-10T12:49:09.632Z,1.00
2022-09-10T12:51:57.509Z,1.08
2022-09-10T12:54:56.934Z,1.10
2022-09-10T12:57:40.572Z,1.10
2022-09-10T13:00:22.773Z,0.88
2022-09-10T13:02:58.454Z,1.10
2022-09-10T13:05:33.958Z,0.95
2022-09-10T13:08:14.974Z,0.80
2022-09-10T13:10:50.174Z,0.93
2022-09-10T13:13:37.913Z,1.00
2022-09-10T13:16:18.659Z,1.02
2022-09-10T13:18:56.378Z,0.95
2022-09-10T13:21:56.464Z,1.00
2022-09-10T13:25:03.798Z,1.13
2022-09-10T13:27:43.842Z,0.90
2022-09-10T13:30:21.336Z,1.10
2022-09-10T13:32:59.157Z,1.02
2022-09-10T13:36:03.756Z,1.00
2022-09-10T13:39:12.536Z,0.93
2022-09-10T13:42:08.377Z,0.90
2022-09-10T13:45:02.221Z,0.93
2022-09-10T13:47:40.819Z,0.88
2022-09-10T13:50:20.935Z,1.20
2022-09-10T13:52:58.034Z,1.10
2022-09-10T13:55:32.777Z,1.00
2022-09-10T13:58:15.176Z,0.98
2022-09-10T14:00:56.235Z,1.30
2022-09-10T14:03:32.788Z,1.20
2022-09-10T14:06:10.115Z,1.20
2022-09-10T14:08:45.217Z,2.17
2022-09-10T14:11:22.497Z,1.25
2022-09-10T14:13:58.117Z,1.30
2022-09-10T14:16:33.294Z,1.20
2022-09-10T14:19:07.837Z,1.50
2022-09-10T14:21:42.355Z,1.13
2022-09-10T14:24:31.695Z,1.33
2022-09-10T14:27:20.275Z,1.30
2022-09-10T14:29:53.675Z,1.48
2022-09-10T14:32:34.755Z,1.02
2022-09-10T14:35:36.215Z,1.17
2022-09-10T14:38:32.134Z,1.15
2022-09-10T14:41:08.800Z,1.27
2022-09-10T14:43:42.775Z,1.15
2022-09-10T14:46:37.576Z,1.20
2022-09-10T14:49:13.656Z,1.40
2022-09-10T14:51:45.759Z,1.40
2022-09-10T14:54:20.015Z,0.93
2022-09-10T14:56:54.635Z,1.00
2022-09-10T14:59:33.335Z,1.13
2022-09-10T15:02:12.016Z,1.20
2022-09-10T15:04:44.108Z,0.85
2022-09-10T15:07:23.848Z,1.50
2022-09-10T15:09:57.977Z,1.33
2022-09-10T15:12:32.527Z,1.00
2022-09-10T15:15:21.669Z,0.93
2022-09-10T15:17:54.489Z,1.40
2022-09-10T15:20:28.092Z,1.75
2022-09-10T15:23:00.094Z,1.50
2022-09-10T15:26:04.493Z,1.30
2022-09-10T15:29:16.289Z,7.35
2022-09-10T15:32:13.155Z,1.80
2022-09-10T15:36:01.557Z,1.30
2022-09-10T15:38:38.458Z,1.33
2022-09-10T15:41:48.018Z,1.50
2022-09-10T15:45:15.852Z,1.70
2022-09-10T15:48:15.970Z,1.58
2022-09-10T15:51:06.097Z,1.80
2022-09-10T15:54:11.947Z,1.88
2022-09-10T15:56:56.673Z,1.80
2022-09-10T15:59:33.430Z,2.10
2022-09-10T16:02:24.984Z,1.75
2022-09-10T16:05:24.172Z,1.50
2022-09-10T16:07:55.468Z,2.00
2022-09-10T16:10:30.051Z,1.80
2022-09-10T16:13:03.242Z,2.03
2022-09-10T16:15:38.296Z,2.30
2022-09-10T16:18:13.991Z,2.08
2022-09-10T16:20:48.014Z,2.10
2022-09-10T16:23:19.452Z,2.10
2022-09-10T16:25:55.495Z,1.75
2022-09-10T16:28:26.804Z,1.50
2022-09-10T16:30:59.327Z,1.90
2022-09-10T16:33:34.377Z,1.88
2022-09-10T16:36:11.135Z,2.30
2022-09-10T16:38:43.285Z,1.80
2022-09-10T16:41:17.835Z,1.80
2022-09-10T16:43:50.988Z,1.70
2022-09-10T16:46:23.636Z,1.73
2022-09-10T16:48:59.480Z,1.80
2022-09-10T16:51:33.977Z,1.80
2022-09-10T16:54:07.890Z,1.83
2022-09-10T16:56:41.065Z,2.05
2022-09-10T16:59:15.861Z,1.90
2022-09-10T17:01:50.399Z,2.05
2022-09-10T17:04:29.168Z,2.00
2022-09-10T17:07:04.982Z,2.60
2022-09-10T17:09:36.983Z,2.33
2022-09-10T17:12:10.901Z,2.28
2022-09-10T17:14:43.002Z,2.28
2022-09-10T17:17:36.188Z,2.30
2022-09-10T17:20:16.522Z,2.42
2022-09-10T17:22:51.883Z,2.92
2022-09-10T17:25:23.824Z,2.60
2022-09-10T17:27:56.102Z,3.60
2022-09-10T17:30:27.880Z,2.92
2022-09-10T17:32:59.982Z,3.20
2022-09-10T17:35:32.565Z,3.10
2022-09-10T17:38:08.582Z,2.88
2022-09-10T17:40:40.302Z,3.08
2022-09-10T17:43:14.061Z,3.20
2022-09-10T17:45:45.629Z,4.55
2022-09-10T17:48:18.501Z,3.13
2022-09-10T17:50:50.701Z,2.90
2022-09-10T17:53:25.561Z,3.55
2022-09-10T17:55:57.121Z,3.22
2022-09-10T17:58:28.992Z,3.30
2022-09-10T18:01:02.602Z,4.00
2022-09-10T18:03:34.778Z,3.80
2022-09-10T18:06:07.220Z,3.50
2022-09-10T18:08:42.951Z,3.47
2022-09-10T18:11:16.555Z,3.45
2022-09-10T18:13:51.270Z,3.42
2022-09-10T18:16:24.503Z,3.20
2022-09-10T18:18:58.381Z,4.57
2022-09-10T18:21:31.401Z,4.45
2022-09-10T18:24:07.754Z,4.20
2022-09-10T18:26:40.253Z,4.88
2022-09-10T18:29:15.040Z,4.28
2022-09-10T18:31:48.176Z,3.75
2022-09-10T18:34:23.588Z,3.95
2022-09-10T18:36:57.698Z,3.90
2022-09-10T18:39:33.889Z,4.45
2022-09-10T18:42:06.344Z,4.13
2022-09-10T18:44:39.843Z,4.03
2022-09-10T18:47:34.044Z,4.32
2022-09-10T18:50:03.311Z,4.43
2022-09-10T18:52:35.898Z,4.35
2022-09-10T18:55:10.922Z,4.43
2022-09-10T18:57:41.979Z,4.40
2022-09-10T19:00:16.824Z,4.50
2022-09-10T19:02:47.895Z,4.50
2022-09-10T19:05:19.541Z,4.25
2022-09-10T19:07:51.880Z,4.40
2022-09-10T19:10:25.481Z,4.60
2022-09-10T19:12:56.216Z,4.75
2022-09-10T19:15:28.061Z,5.05
2022-09-10T19:18:00.596Z,5.07
2022-09-10T19:20:34.441Z,4.85
2022-09-10T19:23:05.241Z,5.35
2022-09-10T19:25:38.988Z,4.80
2022-09-10T19:28:10.094Z,5.57
2022-09-10T19:30:41.726Z,5.30
2022-09-10T19:33:12.757Z,5.40
2022-09-10T19:35:44.460Z,5.13
2022-09-10T19:38:36.574Z,5.22
2022-09-10T19:41:13.218Z,5.70
2022-09-10T19:43:45.150Z,7.57
2022-09-10T19:46:17.874Z,6.38
2022-09-10T19:48:50.304Z,5.78
2022-09-10T19:51:22.949Z,5.95
2022-09-10T19:53:55.300Z,8.65
2022-09-10T19:56:34.019Z,6.72
2022-09-10T19:59:08.773Z,8.13
2022-09-10T20:01:42.721Z,7.20
2022-09-10T20:04:15.234Z,7.95
2022-09-10T20:06:47.839Z,8.13
2022-09-10T20:09:19.146Z,7.95
2022-09-10T20:11:53.443Z,6.82
2022-09-10T20:14:27.620Z,7.53
2022-09-10T20:16:59.418Z,7.18
2022-09-10T20:19:30.819Z,7.88
2022-09-10T20:22:02.835Z,6.80
2022-09-10T20:24:34.896Z,6.97
2022-09-10T20:27:09.895Z,6.95
2022-09-10T20:29:41.821Z,6.95
2022-09-10T20:32:14.413Z,7.38
2022-09-10T20:34:46.556Z,7.00
2022-09-10T20:37:19.065Z,7.55
2022-09-10T20:39:51.465Z,7.22
2022-09-10T20:42:28.175Z,8.13
2022-09-10T20:44:59.954Z,8.48
2022-09-10T20:47:34.516Z,8.15
2022-09-10T20:50:06.783Z,7.88
2022-09-10T20:52:39.317Z,8.77
2022-09-10T20:55:12.496Z,7.82
2022-09-10T20:57:47.074Z,8.10
2022-09-10T21:00:19.039Z,8.38
2022-09-10T21:02:52.364Z,8.02
2022-09-10T21:05:23.789Z,8.10
2022-09-10T21:07:56.238Z,8.52
2022-09-10T21:10:28.220Z,8.25
2022-09-10T21:13:03.839Z,7.95
2022-09-10T21:15:35.708Z,8.10
2022-09-10T21:18:09.541Z,8.70
2022-09-10T21:20:41.300Z,8.85
2022-09-10T21:23:13.601Z,8.95
2022-09-10T21:25:54.382Z,9.05
2022-09-10T21:28:30.408Z,8.82
2022-09-10T21:31:06.108Z,10.73
2022-09-10T21:33:39.158Z,10.70
2022-09-10T21:36:14.740Z,10.55
2022-09-10T21:38:50.500Z,10.70
2022-09-10T21:41:27.426Z,9.80
2022-09-10T21:44:03.270Z,11.35
2022-09-10T21:46:36.378Z,9.38
2022-09-10T21:49:08.102Z,9.73
2022-09-10T21:51:39.483Z,9.05
2022-09-10T21:54:19.707Z,9.27
2022-09-10T21:56:59.145Z,8.65
2022-09-10T21:59:34.498Z,10.85
2022-09-10T22:02:08.673Z,10.18
2022-09-10T22:04:54.136Z,10.05
2022-09-10T22:07:25.954Z,10.80
2022-09-10T22:09:57.476Z,11.45
2022-09-10T22:12:30.180Z,10.85
2022-09-10T22:15:04.325Z,11.43
2022-09-10T22:17:38.339Z,11.27
2022-09-10T22:20:12.540Z,10.90
2022-09-10T22:22:44.517Z,11.18
2022-09-10T22:25:16.434Z,10.10
2022-09-10T22:27:52.112Z,10.93
2022-09-10T22:30:27.944Z,11.20
2022-09-10T22:32:59.783Z,10.77
2022-09-10T22:35:31.309Z,11.18
2022-09-10T22:38:03.444Z,10.80
2022-09-10T22:40:36.516Z,10.32
2022-09-10T22:43:07.392Z,11.25
2022-09-10T22:45:41.367Z,12.15
2022-09-10T22:48:13.150Z,10.45
2022-09-10T22:50:44.765Z,10.40
2022-09-10T22:53:16.727Z,10.38
2022-09-10T22:55:48.467Z,10.65
2022-09-10T22:58:20.505Z,10.75
2022-09-10T23:00:54.970Z,11.30
2022-09-10T23:03:26.903Z,10.48
2022-09-10T23:06:08.662Z,11.50
2022-09-10T23:08:41.145Z,10.88
2022-09-10T23:11:15.578Z,10.90
2022-09-10T23:13:48.925Z,10.68
2022-09-10T23:16:27.826Z,10.00
2022-09-10T23:19:04.108Z,9.73
2022-09-10T23:21:37.754Z,10.00
2022-09-10T23:24:14.529Z,9.73
2022-09-10T23:26:47.457Z,10.05
2022-09-10T23:29:23.330Z,9.93
2022-09-10T23:31:58.387Z,10.50
2022-09-10T23:34:29.999Z,10.30
2022-09-10T23:37:02.237Z,11.05
2022-09-10T23:39:33.433Z,9.93
2022-09-10T23:42:07.002Z,11.05
2022-09-10T23:44:38.368Z,9.77
2022-09-10T23:47:13.028Z,10.38
2022-09-10T23:49:45.358Z,9.77
2022-09-10T23:52:17.902Z,9.55
2022-09-10T23:54:49.867Z,10.27
2022-09-10T23:57:23.432Z,9.93
2022-09-10T23:59:56.893Z,10.38
